sensor_id;sensor_type;location;lat;lon;timestamp;P1;durP1;ratioP1;P2;durP2;ratioP2
53267;SDS011;39156;51.176;6.738;2023-08-24T00:00:49;34.37;;;32.37;;
53267;SDS011;39156;51.176;6.738;2023-08-24T00:03:16;36.40;;;33.92;;
53267;SDS011;39156;51.176;6.738;2023-08-24T00:05:41;36.67;;;34.43;;
53267;SDS011;39156;51.176;6.738;2023-08-24T00:08:08;36.00;;;33.75;;
53267;SDS011;39156;51.176;6.738;2023-08-24T00:10:34;36.20;;;34.17;;
53267;SDS011;39156;51.176;6.738;2023-08-24T00:15:27;35.33;;;33.03;;
53267;SDS011;39156;51.176;6.738;2023-08-24T00:17:53;37.42;;;35.33;;
53267;SDS011;39156;51.176;6.738;2023-08-24T00:20:19;34.57;;;32.60;;
53267;SDS011;39156;51.176;6.738;2023-08-24T00:22:45;37.90;;;35.50;;
53267;SDS011;39156;51.176;6.738;2023-08-24T00:25:11;35.03;;;32.85;;
53267;SDS011;39156;51.176;6.738;2023-08-24T00:27:37;37.03;;;34.80;;
53267;SDS011;39156;51.176;6.738;2023-08-24T00:30:04;35.92;;;33.47;;
53267;SDS011;39156;51.176;6.738;2023-08-24T00:32:32;35.72;;;33.53;;
53267;SDS011;39156;51.176;6.738;2023-08-24T00:35:00;37.08;;;34.95;;
53267;SDS011;39156;51.176;6.738;2023-08-24T00:37:27;35.13;;;33.00;;
53267;SDS011;39156;51.176;6.738;2023-08-24T00:39:53;34.85;;;32.75;;
53267;SDS011;39156;51.176;6.738;2023-08-24T00:42:20;35.90;;;33.65;;
53267;SDS011;39156;51.176;6.738;2023-08-24T00:44:47;36.35;;;34.15;;
53267;SDS011;39156;51.176;6.738;2023-08-24T00:47:14;34.20;;;32.10;;
53267;SDS011;39156;51.176;6.738;2023-08-24T00:49:41;37.30;;;35.08;;
53267;SDS011;39156;51.176;6.738;2023-08-24T00:52:07;33.08;;;30.98;;
53267;SDS011;39156;51.176;6.738;2023-08-24T00:54:33;36.95;;;34.85;;
53267;SDS011;39156;51.176;6.738;2023-08-24T00:57:00;35.92;;;33.63;;
53267;SDS011;39156;51.176;6.738;2023-08-24T00:59:26;34.60;;;32.33;;
53267;SDS011;39156;51.176;6.738;2023-08-24T01:01:52;36.47;;;34.27;;
53267;SDS011;39156;51.176;6.738;2023-08-24T01:04:18;36.17;;;33.83;;
53267;SDS011;39156;51.176;6.738;2023-08-24T01:06:43;36.90;;;34.90;;
53267;SDS011;39156;51.176;6.738;2023-08-24T01:09:09;39.73;;;37.23;;
53267;SDS011;39156;51.176;6.738;2023-08-24T01:17:42;37.58;;;35.47;;
53267;SDS011;39156;51.176;6.738;2023-08-24T01:20:09;35.95;;;33.75;;
53267;SDS011;39156;51.176;6.738;2023-08-24T01:22:37;38.00;;;35.30;;
53267;SDS011;39156;51.176;6.738;2023-08-24T01:25:31;35.08;;;33.00;;
53267;SDS011;39156;51.176;6.738;2023-08-24T01:28:10;35.40;;;33.30;;
53267;SDS011;39156;51.176;6.738;2023-08-24T01:30:38;35.65;;;33.55;;
53267;SDS011;39156;51.176;6.738;2023-08-24T01:33:04;34.58;;;32.55;;
53267;SDS011;39156;51.176;6.738;2023-08-24T01:35:30;35.53;;;33.53;;
53267;SDS011;39156;51.176;6.738;2023-08-24T01:37:57;34.92;;;32.75;;
53267;SDS011;39156;51.176;6.738;2023-08-24T01:40:31;36.55;;;34.25;;
53267;SDS011;39156;51.176;6.738;2023-08-24T01:43:14;36.80;;;34.75;;
53267;SDS011;39156;51.176;6.738;2023-08-24T01:45:43;35.92;;;33.63;;
53267;SDS011;39156;51.176;6.738;2023-08-24T01:48:10;35.03;;;32.97;;
53267;SDS011;39156;51.176;6.738;2023-08-24T01:50:37;35.22;;;33.33;;
53267;SDS011;39156;51.176;6.738;2023-08-24T01:53:04;37.05;;;35.05;;
53267;SDS011;39156;51.176;6.738;2023-08-24T01:55:30;35.80;;;33.73;;
53267;SDS011;39156;51.176;6.738;2023-08-24T01:57:56;39.37;;;37.07;;
53267;SDS011;39156;51.176;6.738;2023-08-24T02:00:22;36.05;;;33.95;;
53267;SDS011;39156;51.176;6.738;2023-08-24T02:02:48;37.10;;;34.90;;
53267;SDS011;39156;51.176;6.738;2023-08-24T02:05:14;37.67;;;35.20;;
53267;SDS011;39156;51.176;6.738;2023-08-24T02:07:40;39.90;;;37.50;;
53267;SDS011;39156;51.176;6.738;2023-08-24T02:10:05;34.60;;;32.60;;
53267;SDS011;39156;51.176;6.738;2023-08-24T02:12:32;37.75;;;35.58;;
53267;SDS011;39156;51.176;6.738;2023-08-24T02:14:57;37.47;;;35.13;;
53267;SDS011;39156;51.176;6.738;2023-08-24T02:17:23;36.07;;;33.97;;
53267;SDS011;39156;51.176;6.738;2023-08-24T02:19:49;37.27;;;34.97;;
53267;SDS011;39156;51.176;6.738;2023-08-24T02:22:15;36.53;;;34.42;;
53267;SDS011;39156;51.176;6.738;2023-08-24T02:24:41;36.60;;;34.43;;
53267;SDS011;39156;51.176;6.738;2023-08-24T02:27:06;37.10;;;34.93;;
53267;SDS011;39156;51.176;6.738;2023-08-24T02:29:32;36.10;;;33.73;;
53267;SDS011;39156;51.176;6.738;2023-08-24T02:31:58;35.80;;;33.80;;
53267;SDS011;39156;51.176;6.738;2023-08-24T02:34:23;38.47;;;36.33;;
53267;SDS011;39156;51.176;6.738;2023-08-24T02:36:49;36.63;;;34.30;;
53267;SDS011;39156;51.176;6.738;2023-08-24T02:39:15;36.07;;;33.97;;
53267;SDS011;39156;51.176;6.738;2023-08-24T02:41:41;35.30;;;33.28;;
53267;SDS011;39156;51.176;6.738;2023-08-24T02:44:06;37.47;;;34.97;;
53267;SDS011;39156;51.176;6.738;2023-08-24T02:46:32;37.10;;;34.63;;
53267;SDS011;39156;51.176;6.738;2023-08-24T02:48:58;37.50;;;35.40;;
53267;SDS011;39156;51.176;6.738;2023-08-24T02:51:23;36.50;;;34.37;;
53267;SDS011;39156;51.176;6.738;2023-08-24T02:53:50;38.40;;;36.13;;
53267;SDS011;39156;51.176;6.738;2023-08-24T02:56:16;36.70;;;34.38;;
53267;SDS011;39156;51.176;6.738;2023-08-24T02:58:41;35.17;;;33.07;;
53267;SDS011;39156;51.176;6.738;2023-08-24T03:01:07;36.43;;;34.30;;
53267;SDS011;39156;51.176;6.738;2023-08-24T03:03:33;36.53;;;34.33;;
53267;SDS011;39156;51.176;6.738;2023-08-24T03:06:01;37.70;;;35.50;;
53267;SDS011;39156;51.176;6.738;2023-08-24T03:08:30;37.95;;;35.85;;
53267;SDS011;39156;51.176;6.738;2023-08-24T03:11:00;36.70;;;34.45;;
53267;SDS011;39156;51.176;6.738;2023-08-24T03:13:27;37.28;;;35.03;;
53267;SDS011;39156;51.176;6.738;2023-08-24T03:15:54;37.90;;;35.70;;
53267;SDS011;39156;51.176;6.738;2023-08-24T03:18:20;35.22;;;33.20;;
53267;SDS011;39156;51.176;6.738;2023-08-24T03:20:46;37.33;;;35.08;;
53267;SDS011;39156;51.176;6.738;2023-08-24T03:23:14;37.08;;;34.88;;
53267;SDS011;39156;51.176;6.738;2023-08-24T03:25:41;37.38;;;34.95;;
53267;SDS011;39156;51.176;6.738;2023-08-24T03:28:07;37.20;;;34.90;;
53267;SDS011;39156;51.176;6.738;2023-08-24T03:30:35;36.35;;;34.13;;
53267;SDS011;39156;51.176;6.738;2023-08-24T03:33:02;36.97;;;34.78;;
53267;SDS011;39156;51.176;6.738;2023-08-24T03:37:58;35.47;;;33.47;;
53267;SDS011;39156;51.176;6.738;2023-08-24T03:40:24;36.22;;;34.03;;
53267;SDS011;39156;51.176;6.738;2023-08-24T03:42:50;36.57;;;34.30;;
53267;SDS011;39156;51.176;6.738;2023-08-24T03:45:16;39.00;;;36.80;;
53267;SDS011;39156;51.176;6.738;2023-08-24T03:47:42;37.67;;;35.37;;
53267;SDS011;39156;51.176;6.738;2023-08-24T03:50:07;38.60;;;36.30;;
53267;SDS011;39156;51.176;6.738;2023-08-24T03:52:33;35.28;;;33.17;;
53267;SDS011;39156;51.176;6.738;2023-08-24T03:54:59;36.17;;;33.87;;
53267;SDS011;39156;51.176;6.738;2023-08-24T03:57:25;36.37;;;34.27;;
53267;SDS011;39156;51.176;6.738;2023-08-24T03:59:51;37.90;;;35.57;;
53267;SDS011;39156;51.176;6.738;2023-08-24T04:02:16;38.53;;;36.10;;
53267;SDS011;39156;51.176;6.738;2023-08-24T04:04:42;38.30;;;36.10;;
53267;SDS011;39156;51.176;6.738;2023-08-24T04:07:08;37.38;;;35.20;;
53267;SDS011;39156;51.176;6.738;2023-08-24T04:09:34;38.73;;;36.50;;
53267;SDS011;39156;51.176;6.738;2023-08-24T04:11:59;36.87;;;34.77;;
53267;SDS011;39156;51.176;6.738;2023-08-24T04:14:25;36.77;;;34.30;;
53267;SDS011;39156;51.176;6.738;2023-08-24T04:16:51;36.30;;;34.23;;
53267;SDS011;39156;51.176;6.738;2023-08-24T04:19:17;36.05;;;33.83;;
53267;SDS011;39156;51.176;6.738;2023-08-24T04:21:43;37.37;;;34.97;;
53267;SDS011;39156;51.176;6.738;2023-08-24T04:24:08;36.03;;;33.93;;
53267;SDS011;39156;51.176;6.738;2023-08-24T04:26:34;38.93;;;36.50;;
53267;SDS011;39156;51.176;6.738;2023-08-24T04:29:00;37.63;;;35.17;;
53267;SDS011;39156;51.176;6.738;2023-08-24T04:31:25;37.00;;;34.27;;
53267;SDS011;39156;51.176;6.738;2023-08-24T04:33:51;36.30;;;34.10;;
53267;SDS011;39156;51.176;6.738;2023-08-24T04:36:17;35.93;;;33.70;;
53267;SDS011;39156;51.176;6.738;2023-08-24T04:38:42;37.65;;;35.25;;
53267;SDS011;39156;51.176;6.738;2023-08-24T04:41:09;39.15;;;36.80;;
53267;SDS011;39156;51.176;6.738;2023-08-24T04:43:34;38.97;;;36.23;;
53267;SDS011;39156;51.176;6.738;2023-08-24T04:48:28;38.60;;;36.28;;
53267;SDS011;39156;51.176;6.738;2023-08-24T04:50:59;37.40;;;34.83;;
53267;SDS011;39156;51.176;6.738;2023-08-24T04:53:26;38.17;;;35.67;;
53267;SDS011;39156;51.176;6.738;2023-08-24T04:55:52;37.40;;;35.27;;
53267;SDS011;39156;51.176;6.738;2023-08-24T04:58:17;37.45;;;34.97;;
53267;SDS011;39156;51.176;6.738;2023-08-24T05:00:43;38.03;;;35.67;;
53267;SDS011;39156;51.176;6.738;2023-08-24T05:03:09;37.78;;;35.47;;
53267;SDS011;39156;51.176;6.738;2023-08-24T05:05:36;36.65;;;34.10;;
53267;SDS011;39156;51.176;6.738;2023-08-24T05:08:03;36.67;;;34.50;;
53267;SDS011;39156;51.176;6.738;2023-08-24T05:10:35;37.40;;;34.88;;
53267;SDS011;39156;51.176;6.738;2023-08-24T05:13:01;36.55;;;34.45;;
53267;SDS011;39156;51.176;6.738;2023-08-24T05:15:27;37.97;;;35.60;;
53267;SDS011;39156;51.176;6.738;2023-08-24T05:17:53;39.03;;;36.57;;
53267;SDS011;39156;51.176;6.738;2023-08-24T05:20:19;38.35;;;35.83;;
53267;SDS011;39156;51.176;6.738;2023-08-24T05:22:46;39.60;;;37.10;;
53267;SDS011;39156;51.176;6.738;2023-08-24T05:25:12;38.38;;;35.97;;
53267;SDS011;39156;51.176;6.738;2023-08-24T05:27:38;38.20;;;35.07;;
53267;SDS011;39156;51.176;6.738;2023-08-24T05:30:05;38.85;;;36.42;;
53267;SDS011;39156;51.176;6.738;2023-08-24T05:32:32;36.10;;;33.75;;
53267;SDS011;39156;51.176;6.738;2023-08-24T05:34:57;39.50;;;36.97;;
53267;SDS011;39156;51.176;6.738;2023-08-24T05:37:23;36.77;;;34.47;;
53267;SDS011;39156;51.176;6.738;2023-08-24T05:39:49;38.42;;;35.95;;
53267;SDS011;39156;51.176;6.738;2023-08-24T05:42:15;39.13;;;36.73;;
53267;SDS011;39156;51.176;6.738;2023-08-24T05:44:40;39.87;;;37.13;;
53267;SDS011;39156;51.176;6.738;2023-08-24T05:47:06;40.63;;;37.87;;
53267;SDS011;39156;51.176;6.738;2023-08-24T05:49:32;38.23;;;35.70;;
53267;SDS011;39156;51.176;6.738;2023-08-24T05:51:57;39.67;;;37.10;;
53267;SDS011;39156;51.176;6.738;2023-08-24T05:54:23;39.40;;;35.87;;
53267;SDS011;39156;51.176;6.738;2023-08-24T05:56:49;40.43;;;37.70;;
53267;SDS011;39156;51.176;6.738;2023-08-24T05:59:14;40.63;;;37.80;;
53267;SDS011;39156;51.176;6.738;2023-08-24T06:01:40;41.17;;;38.53;;
53267;SDS011;39156;51.176;6.738;2023-08-24T06:04:09;38.45;;;35.95;;
53267;SDS011;39156;51.176;6.738;2023-08-24T06:06:35;37.35;;;34.88;;
53267;SDS011;39156;51.176;6.738;2023-08-24T06:09:02;38.75;;;36.35;;
53267;SDS011;39156;51.176;6.738;2023-08-24T06:11:32;38.63;;;35.92;;
53267;SDS011;39156;51.176;6.738;2023-08-24T06:13:58;38.50;;;36.03;;
53267;SDS011;39156;51.176;6.738;2023-08-24T06:16:24;38.17;;;35.57;;
53267;SDS011;39156;51.176;6.738;2023-08-24T06:18:53;36.78;;;34.35;;
53267;SDS011;39156;51.176;6.738;2023-08-24T06:21:18;36.87;;;34.47;;
53267;SDS011;39156;51.176;6.738;2023-08-24T06:23:44;38.90;;;36.23;;
53267;SDS011;39156;51.176;6.738;2023-08-24T06:26:12;37.42;;;34.75;;
53267;SDS011;39156;51.176;6.738;2023-08-24T06:28:41;36.53;;;34.33;;
53267;SDS011;39156;51.176;6.738;2023-08-24T06:31:07;35.17;;;32.97;;
53267;SDS011;39156;51.176;6.738;2023-08-24T06:33:33;36.23;;;33.93;;
53267;SDS011;39156;51.176;6.738;2023-08-24T06:36:00;37.15;;;34.72;;
53267;SDS011;39156;51.176;6.738;2023-08-24T06:38:27;37.08;;;34.50;;
53267;SDS011;39156;51.176;6.738;2023-08-24T06:40:53;35.33;;;32.97;;
53267;SDS011;39156;51.176;6.738;2023-08-24T06:43:19;36.23;;;33.83;;
53267;SDS011;39156;51.176;6.738;2023-08-24T06:45:45;33.80;;;31.40;;
53267;SDS011;39156;51.176;6.738;2023-08-24T06:48:11;32.00;;;29.92;;
53267;SDS011;39156;51.176;6.738;2023-08-24T06:50:36;33.67;;;31.52;;
53267;SDS011;39156;51.176;6.738;2023-08-24T06:53:05;31.30;;;29.27;;
53267;SDS011;39156;51.176;6.738;2023-08-24T06:55:30;32.53;;;30.23;;
53267;SDS011;39156;51.176;6.738;2023-08-24T06:57:56;30.63;;;28.83;;
53267;SDS011;39156;51.176;6.738;2023-08-24T07:02:48;31.10;;;28.98;;
53267;SDS011;39156;51.176;6.738;2023-08-24T07:05:14;30.25;;;28.35;;
53267;SDS011;39156;51.176;6.738;2023-08-24T07:07:43;30.95;;;28.85;;
53267;SDS011;39156;51.176;6.738;2023-08-24T07:10:10;29.70;;;27.70;;
53267;SDS011;39156;51.176;6.738;2023-08-24T07:12:37;30.17;;;27.67;;
53267;SDS011;39156;51.176;6.738;2023-08-24T07:15:05;28.92;;;26.88;;
53267;SDS011;39156;51.176;6.738;2023-08-24T07:17:32;28.75;;;27.05;;
53267;SDS011;39156;51.176;6.738;2023-08-24T07:19:58;30.25;;;28.02;;
53267;SDS011;39156;51.176;6.738;2023-08-24T07:22:24;27.52;;;25.88;;
53267;SDS011;39156;51.176;6.738;2023-08-24T07:24:53;28.13;;;26.33;;
53267;SDS011;39156;51.176;6.738;2023-08-24T07:27:19;28.42;;;26.55;;
53267;SDS011;39156;51.176;6.738;2023-08-24T07:29:45;27.40;;;25.70;;
53267;SDS011;39156;51.176;6.738;2023-08-24T07:32:10;27.95;;;26.15;;
53267;SDS011;39156;51.176;6.738;2023-08-24T07:34:36;27.67;;;25.98;;
53267;SDS011;39156;51.176;6.738;2023-08-24T07:37:02;27.40;;;25.85;;
53267;SDS011;39156;51.176;6.738;2023-08-24T07:39:28;28.63;;;26.92;;
53267;SDS011;39156;51.176;6.738;2023-08-24T07:41:54;27.67;;;26.00;;
53267;SDS011;39156;51.176;6.738;2023-08-24T07:44:19;27.35;;;25.75;;
53267;SDS011;39156;51.176;6.738;2023-08-24T07:46:46;27.52;;;25.77;;
53267;SDS011;39156;51.176;6.738;2023-08-24T07:49:12;26.95;;;25.35;;
53267;SDS011;39156;51.176;6.738;2023-08-24T07:51:38;26.75;;;25.15;;
53267;SDS011;39156;51.176;6.738;2023-08-24T07:54:04;26.95;;;25.35;;
53267;SDS011;39156;51.176;6.738;2023-08-24T07:56:31;27.55;;;26.05;;
53267;SDS011;39156;51.176;6.738;2023-08-24T07:58:58;26.83;;;25.15;;
53267;SDS011;39156;51.176;6.738;2023-08-24T08:01:23;26.65;;;25.13;;
53267;SDS011;39156;51.176;6.738;2023-08-24T08:03:49;27.88;;;25.88;;
53267;SDS011;39156;51.176;6.738;2023-08-24T08:06:15;27.85;;;25.98;;
53267;SDS011;39156;51.176;6.738;2023-08-24T08:08:40;27.77;;;26.20;;
53267;SDS011;39156;51.176;6.738;2023-08-24T08:11:06;26.52;;;25.10;;
53267;SDS011;39156;51.176;6.738;2023-08-24T08:13:32;25.65;;;24.15;;
53267;SDS011;39156;51.176;6.738;2023-08-24T08:16:04;25.73;;;24.33;;
53267;SDS011;39156;51.176;6.738;2023-08-24T08:18:31;25.75;;;24.13;;
53267;SDS011;39156;51.176;6.738;2023-08-24T08:20:58;26.50;;;24.80;;
53267;SDS011;39156;51.176;6.738;2023-08-24T08:23:24;26.45;;;24.95;;
53267;SDS011;39156;51.176;6.738;2023-08-24T08:25:50;26.30;;;24.65;;
53267;SDS011;39156;51.176;6.738;2023-08-24T08:28:16;26.50;;;25.00;;
53267;SDS011;39156;51.176;6.738;2023-08-24T08:30:43;26.02;;;24.40;;
53267;SDS011;39156;51.176;6.738;2023-08-24T08:33:09;25.60;;;23.88;;
53267;SDS011;39156;51.176;6.738;2023-08-24T08:35:37;27.05;;;25.45;;
53267;SDS011;39156;51.176;6.738;2023-08-24T08:38:05;26.90;;;25.20;;
53267;SDS011;39156;51.176;6.738;2023-08-24T08:40:32;26.90;;;25.13;;
53267;SDS011;39156;51.176;6.738;2023-08-24T08:43:02;27.83;;;26.02;;
53267;SDS011;39156;51.176;6.738;2023-08-24T08:45:27;26.95;;;25.45;;
53267;SDS011;39156;51.176;6.738;2023-08-24T08:48:00;28.02;;;26.45;;
53267;SDS011;39156;51.176;6.738;2023-08-24T08:50:31;28.00;;;26.05;;
53267;SDS011;39156;51.176;6.738;2023-08-24T08:53:00;28.05;;;26.35;;
53267;SDS011;39156;51.176;6.738;2023-08-24T08:55:26;27.30;;;25.60;;
53267;SDS011;39156;51.176;6.738;2023-08-24T08:57:55;27.75;;;26.13;;
53267;SDS011;39156;51.176;6.738;2023-08-24T09:00:23;28.33;;;26.73;;
53267;SDS011;39156;51.176;6.738;2023-08-24T09:02:49;28.58;;;26.88;;
53267;SDS011;39156;51.176;6.738;2023-08-24T09:05:18;28.60;;;26.95;;
53267;SDS011;39156;51.176;6.738;2023-08-24T09:07:45;27.58;;;25.98;;
53267;SDS011;39156;51.176;6.738;2023-08-24T09:10:13;27.52;;;26.02;;
53267;SDS011;39156;51.176;6.738;2023-08-24T09:12:38;27.73;;;26.15;;
53267;SDS011;39156;51.176;6.738;2023-08-24T09:15:05;27.83;;;26.33;;
53267;SDS011;39156;51.176;6.738;2023-08-24T09:17:32;29.13;;;27.33;;
53267;SDS011;39156;51.176;6.738;2023-08-24T09:19:59;29.48;;;27.48;;
53267;SDS011;39156;51.176;6.738;2023-08-24T09:22:40;29.58;;;27.88;;
53267;SDS011;39156;51.176;6.738;2023-08-24T09:25:09;29.45;;;27.52;;
53267;SDS011;39156;51.176;6.738;2023-08-24T09:27:35;28.90;;;27.20;;
53267;SDS011;39156;51.176;6.738;2023-08-24T09:30:01;28.58;;;26.95;;
53267;SDS011;39156;51.176;6.738;2023-08-24T09:32:27;29.17;;;27.48;;
53267;SDS011;39156;51.176;6.738;2023-08-24T09:34:55;29.27;;;27.58;;
53267;SDS011;39156;51.176;6.738;2023-08-24T09:37:21;29.25;;;27.63;;
53267;SDS011;39156;51.176;6.738;2023-08-24T09:39:47;29.63;;;27.83;;
53267;SDS011;39156;51.176;6.738;2023-08-24T09:42:13;29.40;;;27.73;;
53267;SDS011;39156;51.176;6.738;2023-08-24T09:44:45;29.58;;;27.60;;
53267;SDS011;39156;51.176;6.738;2023-08-24T09:47:11;29.45;;;27.55;;
53267;SDS011;39156;51.176;6.738;2023-08-24T09:49:37;30.05;;;28.30;;
53267;SDS011;39156;51.176;6.738;2023-08-24T09:52:06;30.25;;;28.25;;
53267;SDS011;39156;51.176;6.738;2023-08-24T09:54:35;29.08;;;27.48;;
53267;SDS011;39156;51.176;6.738;2023-08-24T09:57:02;29.42;;;27.67;;
53267;SDS011;39156;51.176;6.738;2023-08-24T09:59:32;29.23;;;27.30;;
53267;SDS011;39156;51.176;6.738;2023-08-24T10:02:00;28.75;;;27.05;;
53267;SDS011;39156;51.176;6.738;2023-08-24T10:04:32;28.63;;;27.02;;
53267;SDS011;39156;51.176;6.738;2023-08-24T10:07:10;28.85;;;27.00;;
53267;SDS011;39156;51.176;6.738;2023-08-24T10:09:43;28.92;;;27.08;;
53267;SDS011;39156;51.176;6.738;2023-08-24T10:12:24;28.73;;;26.90;;
53267;SDS011;39156;51.176;6.738;2023-08-24T10:14:56;28.92;;;27.05;;
53267;SDS011;39156;51.176;6.738;2023-08-24T10:17:31;28.85;;;27.00;;
53267;SDS011;39156;51.176;6.738;2023-08-24T10:19:59;28.65;;;27.05;;
53267;SDS011;39156;51.176;6.738;2023-08-24T10:22:34;29.35;;;27.58;;
53267;SDS011;39156;51.176;6.738;2023-08-24T10:25:01;29.13;;;27.25;;
53267;SDS011;39156;51.176;6.738;2023-08-24T10:27:28;28.90;;;27.15;;
53267;SDS011;39156;51.176;6.738;2023-08-24T10:29:55;29.02;;;27.33;;
53267;SDS011;39156;51.176;6.738;2023-08-24T10:32:23;28.27;;;26.67;;
53267;SDS011;39156;51.176;6.738;2023-08-24T10:34:51;28.58;;;26.98;;
53267;SDS011;39156;51.176;6.738;2023-08-24T10:37:21;28.48;;;26.77;;
53267;SDS011;39156;51.176;6.738;2023-08-24T10:39:51;29.13;;;27.48;;
53267;SDS011;39156;51.176;6.738;2023-08-24T10:42:17;28.80;;;27.20;;
53267;SDS011;39156;51.176;6.738;2023-08-24T10:44:46;28.92;;;27.35;;
53267;SDS011;39156;51.176;6.738;2023-08-24T10:47:13;30.40;;;28.42;;
53267;SDS011;39156;51.176;6.738;2023-08-24T10:52:32;29.80;;;28.02;;
53267;SDS011;39156;51.176;6.738;2023-08-24T10:55:02;29.25;;;27.55;;
53267;SDS011;39156;51.176;6.738;2023-08-24T10:57:36;30.05;;;28.45;;
53267;SDS011;39156;51.176;6.738;2023-08-24T11:00:07;29.73;;;27.95;;
53267;SDS011;39156;51.176;6.738;2023-08-24T11:02:44;29.40;;;27.80;;
53267;SDS011;39156;51.176;6.738;2023-08-24T11:07:57;30.27;;;27.98;;
53267;SDS011;39156;51.176;6.738;2023-08-24T11:10:31;29.83;;;28.02;;
53267;SDS011;39156;51.176;6.738;2023-08-24T11:13:07;30.52;;;28.85;;
53267;SDS011;39156;51.176;6.738;2023-08-24T11:20:44;29.50;;;27.83;;
53267;SDS011;39156;51.176;6.738;2023-08-24T11:23:12;29.30;;;27.70;;
53267;SDS011;39156;51.176;6.738;2023-08-24T11:25:40;29.65;;;27.83;;
53267;SDS011;39156;51.176;6.738;2023-08-24T11:28:06;30.67;;;28.80;;
53267;SDS011;39156;51.176;6.738;2023-08-24T11:30:31;30.15;;;28.45;;
53267;SDS011;39156;51.176;6.738;2023-08-24T11:32:58;29.98;;;28.20;;
53267;SDS011;39156;51.176;6.738;2023-08-24T11:35:24;29.63;;;27.85;;
53267;SDS011;39156;51.176;6.738;2023-08-24T11:37:54;29.60;;;27.88;;
53267;SDS011;39156;51.176;6.738;2023-08-24T11:40:21;29.55;;;27.88;;
53267;SDS011;39156;51.176;6.738;2023-08-24T11:42:57;31.10;;;29.30;;
53267;SDS011;39156;51.176;6.738;2023-08-24T11:45:24;30.88;;;29.02;;
53267;SDS011;39156;51.176;6.738;2023-08-24T11:47:55;30.55;;;28.70;;
53267;SDS011;39156;51.176;6.738;2023-08-24T11:50:23;30.67;;;28.42;;
53267;SDS011;39156;51.176;6.738;2023-08-24T11:52:49;29.92;;;28.23;;
53267;SDS011;39156;51.176;6.738;2023-08-24T11:55:14;30.60;;;28.70;;
53267;SDS011;39156;51.176;6.738;2023-08-24T11:57:41;29.70;;;28.00;;
53267;SDS011;39156;51.176;6.738;2023-08-24T12:00:07;30.13;;;28.13;;
53267;SDS011;39156;51.176;6.738;2023-08-24T12:02:38;28.77;;;27.08;;
53267;SDS011;39156;51.176;6.738;2023-08-24T12:05:07;29.52;;;27.83;;
53267;SDS011;39156;51.176;6.738;2023-08-24T12:07:45;30.13;;;28.40;;
53267;SDS011;39156;51.176;6.738;2023-08-24T12:10:12;29.35;;;27.75;;
53267;SDS011;39156;51.176;6.738;2023-08-24T12:12:37;29.80;;;28.02;;
53267;SDS011;39156;51.176;6.738;2023-08-24T12:15:03;30.50;;;28.70;;
53267;SDS011;39156;51.176;6.738;2023-08-24T12:17:30;30.25;;;28.20;;
53267;SDS011;39156;51.176;6.738;2023-08-24T12:20:07;30.05;;;28.25;;
53267;SDS011;39156;51.176;6.738;2023-08-24T12:22:40;31.30;;;29.27;;
53267;SDS011;39156;51.176;6.738;2023-08-24T12:27:32;32.70;;;30.50;;
53267;SDS011;39156;51.176;6.738;2023-08-24T12:32:25;31.77;;;29.67;;
53267;SDS011;39156;51.176;6.738;2023-08-24T12:35:06;31.95;;;29.77;;
53267;SDS011;39156;51.176;6.738;2023-08-24T12:37:33;32.05;;;30.08;;
53267;SDS011;39156;51.176;6.738;2023-08-24T12:40:01;31.33;;;29.42;;
53267;SDS011;39156;51.176;6.738;2023-08-24T12:42:31;32.22;;;30.13;;
53267;SDS011;39156;51.176;6.738;2023-08-24T12:44:57;33.13;;;31.13;;
53267;SDS011;39156;51.176;6.738;2023-08-24T12:47:22;31.98;;;30.10;;
53267;SDS011;39156;51.176;6.738;2023-08-24T12:49:48;32.85;;;31.00;;
53267;SDS011;39156;51.176;6.738;2023-08-24T12:52:15;31.90;;;30.08;;
53267;SDS011;39156;51.176;6.738;2023-08-24T12:54:42;30.75;;;28.95;;
53267;SDS011;39156;51.176;6.738;2023-08-24T12:57:07;31.98;;;30.15;;
53267;SDS011;39156;51.176;6.738;2023-08-24T12:59:33;32.53;;;30.52;;
53267;SDS011;39156;51.176;6.738;2023-08-24T13:01:59;31.95;;;30.15;;
53267;SDS011;39156;51.176;6.738;2023-08-24T13:06:53;31.95;;;29.77;;
53267;SDS011;39156;51.176;6.738;2023-08-24T13:09:18;31.23;;;29.50;;
53267;SDS011;39156;51.176;6.738;2023-08-24T13:11:44;31.98;;;29.95;;
53267;SDS011;39156;51.176;6.738;2023-08-24T13:14:10;31.48;;;29.58;;
53267;SDS011;39156;51.176;6.738;2023-08-24T13:19:01;31.40;;;29.40;;
53267;SDS011;39156;51.176;6.738;2023-08-24T13:21:27;32.70;;;30.70;;
53267;SDS011;39156;51.176;6.738;2023-08-24T13:23:53;32.20;;;30.30;;
53267;SDS011;39156;51.176;6.738;2023-08-24T13:26:19;32.08;;;29.90;;
53267;SDS011;39156;51.176;6.738;2023-08-24T13:28:46;32.28;;;30.27;;
53267;SDS011;39156;51.176;6.738;2023-08-24T13:31:12;31.83;;;29.73;;
53267;SDS011;39156;51.176;6.738;2023-08-24T13:33:38;32.65;;;30.55;;
53267;SDS011;39156;51.176;6.738;2023-08-24T13:36:04;32.80;;;30.48;;
53267;SDS011;39156;51.176;6.738;2023-08-24T13:38:30;32.47;;;30.48;;
53267;SDS011;39156;51.176;6.738;2023-08-24T13:40:56;33.33;;;31.02;;
53267;SDS011;39156;51.176;6.738;2023-08-24T13:43:22;32.03;;;29.88;;
53267;SDS011;39156;51.176;6.738;2023-08-24T13:45:47;33.97;;;31.88;;
53267;SDS011;39156;51.176;6.738;2023-08-24T13:48:13;32.05;;;30.15;;
53267;SDS011;39156;51.176;6.738;2023-08-24T13:50:40;33.90;;;31.90;;
53267;SDS011;39156;51.176;6.738;2023-08-24T13:53:07;32.42;;;30.42;;
53267;SDS011;39156;51.176;6.738;2023-08-24T13:55:33;33.15;;;30.90;;
53267;SDS011;39156;51.176;6.738;2023-08-24T13:57:58;31.77;;;29.67;;
53267;SDS011;39156;51.176;6.738;2023-08-24T14:00:25;32.40;;;30.33;;
53267;SDS011;39156;51.176;6.738;2023-08-24T14:02:51;33.83;;;31.48;;
53267;SDS011;39156;51.176;6.738;2023-08-24T14:05:16;33.38;;;31.17;;
53267;SDS011;39156;51.176;6.738;2023-08-24T14:07:42;32.03;;;30.08;;
53267;SDS011;39156;51.176;6.738;2023-08-24T14:10:08;32.67;;;30.77;;
53267;SDS011;39156;51.176;6.738;2023-08-24T14:12:34;32.72;;;30.70;;
53267;SDS011;39156;51.176;6.738;2023-08-24T14:15:00;32.45;;;30.42;;
53267;SDS011;39156;51.176;6.738;2023-08-24T14:17:26;33.50;;;31.50;;
53267;SDS011;39156;51.176;6.738;2023-08-24T14:19:52;33.15;;;31.13;;
53267;SDS011;39156;51.176;6.738;2023-08-24T14:22:17;32.67;;;30.67;;
53267;SDS011;39156;51.176;6.738;2023-08-24T14:24:43;32.70;;;30.80;;
53267;SDS011;39156;51.176;6.738;2023-08-24T14:27:09;33.42;;;31.15;;
53267;SDS011;39156;51.176;6.738;2023-08-24T14:29:34;31.98;;;29.98;;
53267;SDS011;39156;51.176;6.738;2023-08-24T14:32:00;33.30;;;31.17;;
53267;SDS011;39156;51.176;6.738;2023-08-24T14:34:26;32.55;;;30.65;;
53267;SDS011;39156;51.176;6.738;2023-08-24T14:36:51;33.17;;;31.15;;
53267;SDS011;39156;51.176;6.738;2023-08-24T14:39:19;34.58;;;32.38;;
53267;SDS011;39156;51.176;6.738;2023-08-24T14:41:44;32.78;;;30.88;;
53267;SDS011;39156;51.176;6.738;2023-08-24T14:44:10;33.15;;;30.85;;
53267;SDS011;39156;51.176;6.738;2023-08-24T14:46:36;33.15;;;31.00;;
53267;SDS011;39156;51.176;6.738;2023-08-24T14:49:01;31.88;;;30.08;;
53267;SDS011;39156;51.176;6.738;2023-08-24T14:51:28;32.72;;;30.63;;
53267;SDS011;39156;51.176;6.738;2023-08-24T14:53:54;34.05;;;31.98;;
53267;SDS011;39156;51.176;6.738;2023-08-24T14:56:19;32.78;;;30.67;;